sensor_id;sensor_type;location;lat;lon;timestamp;P1;durP1;ratioP1;P2;durP2;ratioP2
1082;SDS011;530;51.448;7.238;2022-09-14T00:01:35;1.70;;;1.60;;
1082;SDS011;530;51.448;7.238;2022-09-14T00:04:09;2.03;;;1.67;;
1082;SDS011;530;51.448;7.238;2022-09-14T00:06:37;2.20;;;1.50;;
1082;SDS011;530;51.448;7.238;2022-09-14T00:09:04;2.13;;;1.60;;
1082;SDS011;530;51.448;7.238;2022-09-14T00:11:35;4.70;;;1.50;;
1082;SDS011;530;51.448;7.238;2022-09-14T00:14:02;2.90;;;1.83;;
1082;SDS011;530;51.448;7.238;2022-09-14T00:16:29;3.93;;;2.23;;
1082;SDS011;530;51.448;7.238;2022-09-14T00:18:58;2.57;;;1.70;;
1082;SDS011;530;51.448;7.238;2022-09-14T00:21:25;5.53;;;2.30;;
1082;SDS011;530;51.448;7.238;2022-09-14T00:23:51;3.77;;;1.93;;
1082;SDS011;530;51.448;7.238;2022-09-14T00:26:19;4.60;;;2.03;;
1082;SDS011;530;51.448;7.238;2022-09-14T00:28:51;4.23;;;2.20;;
1082;SDS011;530;51.448;7.238;2022-09-14T00:31:18;4.30;;;2.53;;
1082;SDS011;530;51.448;7.238;2022-09-14T00:33:45;2.43;;;1.70;;
1082;SDS011;530;51.448;7.238;2022-09-14T00:36:13;3.77;;;1.97;;
1082;SDS011;530;51.448;7.238;2022-09-14T00:38:51;3.90;;;2.00;;
1082;SDS011;530;51.448;7.238;2022-09-14T00:41:20;7.17;;;2.50;;
1082;SDS011;530;51.448;7.238;2022-09-14T00:43:55;3.63;;;1.83;;
1082;SDS011;530;51.448;7.238;2022-09-14T00:46:30;6.23;;;2.53;;
1082;SDS011;530;51.448;7.238;2022-09-14T00:49:01;2.53;;;1.87;;
1082;SDS011;530;51.448;7.238;2022-09-14T00:51:31;4.93;;;2.13;;
1082;SDS011;530;51.448;7.238;2022-09-14T00:54:02;3.37;;;1.70;;
1082;SDS011;530;51.448;7.238;2022-09-14T00:56:28;3.20;;;2.17;;
1082;SDS011;530;51.448;7.238;2022-09-14T00:58:56;2.90;;;1.80;;
1082;SDS011;530;51.448;7.238;2022-09-14T01:01:24;4.73;;;1.90;;
1082;SDS011;530;51.448;7.238;2022-09-14T01:03:50;3.10;;;1.70;;
1082;SDS011;530;51.448;7.238;2022-09-14T01:09:21;4.30;;;1.77;;
1082;SDS011;530;51.448;7.238;2022-09-14T01:20:06;7.07;;;1.80;;
1082;SDS011;530;51.448;7.238;2022-09-14T01:22:47;3.53;;;1.80;;
1082;SDS011;530;51.448;7.238;2022-09-14T01:25:33;3.90;;;2.43;;
1082;SDS011;530;51.448;7.238;2022-09-14T01:28:21;4.80;;;1.90;;
1082;SDS011;530;51.448;7.238;2022-09-14T01:30:51;4.80;;;2.03;;
1082;SDS011;530;51.448;7.238;2022-09-14T01:33:29;3.93;;;2.07;;
1082;SDS011;530;51.448;7.238;2022-09-14T01:36:02;3.50;;;1.93;;
1082;SDS011;530;51.448;7.238;2022-09-14T01:38:32;4.93;;;1.57;;
1082;SDS011;530;51.448;7.238;2022-09-14T01:41:03;7.23;;;1.87;;
1082;SDS011;530;51.448;7.238;2022-09-14T01:43:37;4.97;;;2.00;;
1082;SDS011;530;51.448;7.238;2022-09-14T01:46:30;6.40;;;1.70;;
1082;SDS011;530;51.448;7.238;2022-09-14T01:49:07;3.80;;;1.80;;
1082;SDS011;530;51.448;7.238;2022-09-14T01:51:48;3.30;;;1.67;;
1082;SDS011;530;51.448;7.238;2022-09-14T01:54:32;3.60;;;1.53;;
1082;SDS011;530;51.448;7.238;2022-09-14T01:57:17;3.17;;;1.90;;
1082;SDS011;530;51.448;7.238;2022-09-14T01:59:57;4.83;;;2.00;;
1082;SDS011;530;51.448;7.238;2022-09-14T02:05:02;6.27;;;2.33;;
1082;SDS011;530;51.448;7.238;2022-09-14T02:07:34;3.03;;;1.97;;
1082;SDS011;530;51.448;7.238;2022-09-14T02:10:02;6.50;;;2.00;;
1082;SDS011;530;51.448;7.238;2022-09-14T02:12:30;5.63;;;1.87;;
1082;SDS011;530;51.448;7.238;2022-09-14T02:14:56;5.10;;;1.53;;
1082;SDS011;530;51.448;7.238;2022-09-14T02:17:22;4.13;;;1.93;;
1082;SDS011;530;51.448;7.238;2022-09-14T02:19:52;5.90;;;1.93;;
1082;SDS011;530;51.448;7.238;2022-09-14T02:22:21;4.50;;;2.23;;
1082;SDS011;530;51.448;7.238;2022-09-14T02:24:47;5.47;;;2.50;;
1082;SDS011;530;51.448;7.238;2022-09-14T02:27:14;6.83;;;2.10;;
1082;SDS011;530;51.448;7.238;2022-09-14T02:29:40;4.80;;;1.80;;
1082;SDS011;530;51.448;7.238;2022-09-14T02:40:27;4.73;;;2.27;;
1082;SDS011;530;51.448;7.238;2022-09-14T02:48:25;2.20;;;1.80;;
1082;SDS011;530;51.448;7.238;2022-09-14T02:51:06;5.30;;;1.80;;
1082;SDS011;530;51.448;7.238;2022-09-14T02:53:51;7.03;;;1.93;;
1082;SDS011;530;51.448;7.238;2022-09-14T02:56:18;7.30;;;1.90;;
1082;SDS011;530;51.448;7.238;2022-09-14T02:58:45;4.00;;;1.80;;
1082;SDS011;530;51.448;7.238;2022-09-14T03:01:12;4.50;;;1.43;;
1082;SDS011;530;51.448;7.238;2022-09-14T03:03:39;2.93;;;1.60;;
1082;SDS011;530;51.448;7.238;2022-09-14T03:06:05;3.63;;;1.67;;
1082;SDS011;530;51.448;7.238;2022-09-14T03:08:31;7.17;;;1.97;;
1082;SDS011;530;51.448;7.238;2022-09-14T03:10:57;5.07;;;2.30;;
1082;SDS011;530;51.448;7.238;2022-09-14T03:13:23;5.27;;;1.80;;
1082;SDS011;530;51.448;7.238;2022-09-14T03:15:49;6.00;;;1.80;;
1082;SDS011;530;51.448;7.238;2022-09-14T03:18:15;4.10;;;1.90;;
1082;SDS011;530;51.448;7.238;2022-09-14T03:20:41;2.90;;;1.80;;
1082;SDS011;530;51.448;7.238;2022-09-14T03:23:07;4.27;;;1.93;;
1082;SDS011;530;51.448;7.238;2022-09-14T03:25:40;3.67;;;1.83;;
1082;SDS011;530;51.448;7.238;2022-09-14T03:28:07;5.40;;;2.30;;
1082;SDS011;530;51.448;7.238;2022-09-14T03:30:34;6.27;;;2.07;;
1082;SDS011;530;51.448;7.238;2022-09-14T03:32:59;5.70;;;2.13;;
1082;SDS011;530;51.448;7.238;2022-09-14T03:35:29;5.40;;;2.47;;
1082;SDS011;530;51.448;7.238;2022-09-14T03:37:56;5.47;;;2.60;;
1082;SDS011;530;51.448;7.238;2022-09-14T03:40:23;3.20;;;1.80;;
1082;SDS011;530;51.448;7.238;2022-09-14T03:42:50;4.73;;;2.13;;
1082;SDS011;530;51.448;7.238;2022-09-14T03:45:17;2.90;;;1.50;;
1082;SDS011;530;51.448;7.238;2022-09-14T03:47:43;2.43;;;1.80;;
1082;SDS011;530;51.448;7.238;2022-09-14T03:50:11;4.63;;;2.20;;
1082;SDS011;530;51.448;7.238;2022-09-14T03:52:37;2.20;;;1.80;;
1082;SDS011;530;51.448;7.238;2022-09-14T03:55:04;3.93;;;2.10;;
1082;SDS011;530;51.448;7.238;2022-09-14T03:57:31;5.27;;;2.00;;
1082;SDS011;530;51.448;7.238;2022-09-14T03:59:57;2.70;;;1.47;;
1082;SDS011;530;51.448;7.238;2022-09-14T04:02:23;4.27;;;2.50;;
1082;SDS011;530;51.448;7.238;2022-09-14T04:04:49;4.20;;;2.20;;
1082;SDS011;530;51.448;7.238;2022-09-14T04:07:15;5.57;;;2.20;;
1082;SDS011;530;51.448;7.238;2022-09-14T04:09:41;4.50;;;1.90;;
1082;SDS011;530;51.448;7.238;2022-09-14T04:12:07;2.63;;;2.17;;
1082;SDS011;530;51.448;7.238;2022-09-14T04:14:33;3.53;;;1.97;;
1082;SDS011;530;51.448;7.238;2022-09-14T04:16:59;2.67;;;2.07;;
1082;SDS011;530;51.448;7.238;2022-09-14T04:19:24;4.63;;;1.90;;
1082;SDS011;530;51.448;7.238;2022-09-14T04:21:50;6.10;;;2.70;;
1082;SDS011;530;51.448;7.238;2022-09-14T04:24:16;3.90;;;2.17;;
1082;SDS011;530;51.448;7.238;2022-09-14T04:26:42;6.60;;;2.80;;
1082;SDS011;530;51.448;7.238;2022-09-14T04:29:09;5.07;;;2.60;;
1082;SDS011;530;51.448;7.238;2022-09-14T04:31:36;3.63;;;2.20;;
1082;SDS011;530;51.448;7.238;2022-09-14T04:34:02;3.57;;;2.53;;
1082;SDS011;530;51.448;7.238;2022-09-14T04:36:28;8.13;;;2.63;;
1082;SDS011;530;51.448;7.238;2022-09-14T04:38:58;7.37;;;2.53;;
1082;SDS011;530;51.448;7.238;2022-09-14T04:41:25;3.27;;;2.67;;
1082;SDS011;530;51.448;7.238;2022-09-14T04:43:53;4.70;;;2.33;;
1082;SDS011;530;51.448;7.238;2022-09-14T04:46:21;5.50;;;2.30;;
1082;SDS011;530;51.448;7.238;2022-09-14T04:48:52;5.10;;;3.10;;
1082;SDS011;530;51.448;7.238;2022-09-14T04:51:18;4.83;;;2.57;;
1082;SDS011;530;51.448;7.238;2022-09-14T04:53:46;5.17;;;2.67;;
1082;SDS011;530;51.448;7.238;2022-09-14T04:56:16;5.30;;;2.40;;
1082;SDS011;530;51.448;7.238;2022-09-14T04:58:45;4.53;;;2.50;;
1082;SDS011;530;51.448;7.238;2022-09-14T05:01:13;5.73;;;2.40;;
1082;SDS011;530;51.448;7.238;2022-09-14T05:03:40;6.17;;;3.03;;
1082;SDS011;530;51.448;7.238;2022-09-14T05:06:08;4.03;;;2.80;;
1082;SDS011;530;51.448;7.238;2022-09-14T05:08:42;4.57;;;2.67;;
1082;SDS011;530;51.448;7.238;2022-09-14T05:11:09;4.27;;;2.93;;
1082;SDS011;530;51.448;7.238;2022-09-14T05:13:37;4.80;;;2.90;;
1082;SDS011;530;51.448;7.238;2022-09-14T05:16:06;5.07;;;2.50;;
1082;SDS011;530;51.448;7.238;2022-09-14T05:18:38;4.40;;;2.53;;
1082;SDS011;530;51.448;7.238;2022-09-14T05:21:05;3.00;;;2.20;;
1082;SDS011;530;51.448;7.238;2022-09-14T05:23:33;8.23;;;2.87;;
1082;SDS011;530;51.448;7.238;2022-09-14T05:25:59;7.27;;;3.00;;
1082;SDS011;530;51.448;7.238;2022-09-14T05:28:25;8.60;;;2.83;;
1082;SDS011;530;51.448;7.238;2022-09-14T05:30:51;4.63;;;2.83;;
1082;SDS011;530;51.448;7.238;2022-09-14T05:33:17;6.03;;;2.80;;
1082;SDS011;530;51.448;7.238;2022-09-14T05:35:44;3.73;;;2.57;;
1082;SDS011;530;51.448;7.238;2022-09-14T05:38:10;6.87;;;2.70;;
1082;SDS011;530;51.448;7.238;2022-09-14T05:40:36;6.37;;;2.90;;
1082;SDS011;530;51.448;7.238;2022-09-14T05:43:01;4.83;;;2.60;;
1082;SDS011;530;51.448;7.238;2022-09-14T05:45:27;6.37;;;2.60;;
1082;SDS011;530;51.448;7.238;2022-09-14T05:47:53;4.27;;;2.60;;
1082;SDS011;530;51.448;7.238;2022-09-14T05:50:18;6.23;;;2.50;;
1082;SDS011;530;51.448;7.238;2022-09-14T05:52:44;3.17;;;2.60;;
1082;SDS011;530;51.448;7.238;2022-09-14T05:55:10;11.20;;;3.37;;
1082;SDS011;530;51.448;7.238;2022-09-14T05:57:35;4.80;;;2.70;;
1082;SDS011;530;51.448;7.238;2022-09-14T06:00:02;4.33;;;3.10;;
1082;SDS011;530;51.448;7.238;2022-09-14T06:02:28;7.97;;;3.67;;
1082;SDS011;530;51.448;7.238;2022-09-14T06:04:54;4.77;;;2.77;;
1082;SDS011;530;51.448;7.238;2022-09-14T06:07:20;4.43;;;2.50;;
1082;SDS011;530;51.448;7.238;2022-09-14T06:09:45;5.43;;;2.83;;
1082;SDS011;530;51.448;7.238;2022-09-14T06:12:11;5.77;;;2.93;;
1082;SDS011;530;51.448;7.238;2022-09-14T06:14:38;3.10;;;2.53;;
1082;SDS011;530;51.448;7.238;2022-09-14T06:17:04;4.10;;;3.20;;
1082;SDS011;530;51.448;7.238;2022-09-14T06:19:30;7.17;;;3.97;;
1082;SDS011;530;51.448;7.238;2022-09-14T06:21:56;4.60;;;2.80;;
1082;SDS011;530;51.448;7.238;2022-09-14T06:24:22;7.20;;;2.60;;
1082;SDS011;530;51.448;7.238;2022-09-14T06:26:47;4.77;;;2.83;;
1082;SDS011;530;51.448;7.238;2022-09-14T06:29:13;3.87;;;3.37;;
1082;SDS011;530;51.448;7.238;2022-09-14T06:31:39;4.27;;;2.83;;
1082;SDS011;530;51.448;7.238;2022-09-14T06:34:04;6.93;;;3.23;;
1082;SDS011;530;51.448;7.238;2022-09-14T06:36:30;4.10;;;2.67;;
1082;SDS011;530;51.448;7.238;2022-09-14T06:38:57;4.17;;;3.17;;
1082;SDS011;530;51.448;7.238;2022-09-14T06:41:24;5.87;;;3.27;;
1082;SDS011;530;51.448;7.238;2022-09-14T06:43:54;6.03;;;2.90;;
1082;SDS011;530;51.448;7.238;2022-09-14T06:46:25;5.23;;;3.50;;
1082;SDS011;530;51.448;7.238;2022-09-14T06:48:55;4.70;;;3.20;;
1082;SDS011;530;51.448;7.238;2022-09-14T06:51:24;5.80;;;3.67;;
1082;SDS011;530;51.448;7.238;2022-09-14T06:53:57;4.20;;;3.60;;
1082;SDS011;530;51.448;7.238;2022-09-14T06:56:24;4.70;;;3.50;;
1082;SDS011;530;51.448;7.238;2022-09-14T06:58:51;7.20;;;3.40;;
1082;SDS011;530;51.448;7.238;2022-09-14T07:01:18;4.40;;;3.23;;
1082;SDS011;530;51.448;7.238;2022-09-14T07:03:45;5.60;;;3.70;;
1082;SDS011;530;51.448;7.238;2022-09-14T07:06:12;6.87;;;3.47;;
1082;SDS011;530;51.448;7.238;2022-09-14T07:08:40;9.20;;;4.70;;
1082;SDS011;530;51.448;7.238;2022-09-14T07:11:07;5.90;;;3.40;;
1082;SDS011;530;51.448;7.238;2022-09-14T07:13:34;4.10;;;3.43;;
1082;SDS011;530;51.448;7.238;2022-09-14T07:16:00;6.43;;;4.20;;
1082;SDS011;530;51.448;7.238;2022-09-14T07:18:27;8.10;;;4.03;;
1082;SDS011;530;51.448;7.238;2022-09-14T07:21:16;7.50;;;4.10;;
1082;SDS011;530;51.448;7.238;2022-09-14T07:23:43;6.23;;;3.73;;
1082;SDS011;530;51.448;7.238;2022-09-14T07:26:11;7.00;;;3.93;;
1082;SDS011;530;51.448;7.238;2022-09-14T07:28:42;7.70;;;3.80;;
1082;SDS011;530;51.448;7.238;2022-09-14T07:31:16;7.80;;;4.10;;
1082;SDS011;530;51.448;7.238;2022-09-14T07:33:54;11.10;;;4.70;;
1082;SDS011;530;51.448;7.238;2022-09-14T07:36:21;6.20;;;4.20;;
1082;SDS011;530;51.448;7.238;2022-09-14T07:38:48;6.40;;;4.37;;
1082;SDS011;530;51.448;7.238;2022-09-14T07:41:15;6.43;;;3.73;;
1082;SDS011;530;51.448;7.238;2022-09-14T07:43:40;7.93;;;4.23;;
1082;SDS011;530;51.448;7.238;2022-09-14T07:46:06;5.60;;;3.90;;
1082;SDS011;530;51.448;7.238;2022-09-14T07:48:32;6.03;;;3.97;;
1082;SDS011;530;51.448;7.238;2022-09-14T07:53:30;4.20;;;3.60;;
1082;SDS011;530;51.448;7.238;2022-09-14T07:55:57;5.17;;;3.30;;
1082;SDS011;530;51.448;7.238;2022-09-14T07:58:24;7.97;;;4.00;;
1082;SDS011;530;51.448;7.238;2022-09-14T08:00:51;5.00;;;3.50;;
1082;SDS011;530;51.448;7.238;2022-09-14T08:03:21;5.20;;;3.87;;
1082;SDS011;530;51.448;7.238;2022-09-14T08:05:47;4.90;;;4.03;;
1082;SDS011;530;51.448;7.238;2022-09-14T08:08:12;5.03;;;3.47;;
1082;SDS011;530;51.448;7.238;2022-09-14T08:10:38;6.57;;;3.53;;
1082;SDS011;530;51.448;7.238;2022-09-14T08:13:04;9.67;;;4.63;;
1082;SDS011;530;51.448;7.238;2022-09-14T08:15:29;6.37;;;4.40;;
1082;SDS011;530;51.448;7.238;2022-09-14T08:17:56;8.50;;;4.87;;
1082;SDS011;530;51.448;7.238;2022-09-14T08:20:21;5.67;;;4.60;;
1082;SDS011;530;51.448;7.238;2022-09-14T08:22:47;9.83;;;5.13;;
1082;SDS011;530;51.448;7.238;2022-09-14T08:25:13;6.83;;;5.40;;
1082;SDS011;530;51.448;7.238;2022-09-14T08:27:38;6.60;;;5.47;;
1082;SDS011;530;51.448;7.238;2022-09-14T08:30:04;7.67;;;5.70;;
1082;SDS011;530;51.448;7.238;2022-09-14T08:32:30;7.10;;;4.60;;
1082;SDS011;530;51.448;7.238;2022-09-14T08:34:56;5.80;;;5.20;;
1082;SDS011;530;51.448;7.238;2022-09-14T08:37:22;7.63;;;6.17;;
1082;SDS011;530;51.448;7.238;2022-09-14T08:39:48;6.87;;;5.40;;
1082;SDS011;530;51.448;7.238;2022-09-14T08:42:15;6.50;;;5.37;;
1082;SDS011;530;51.448;7.238;2022-09-14T08:44:44;9.03;;;6.03;;
1082;SDS011;530;51.448;7.238;2022-09-14T08:47:25;5.03;;;4.60;;
1082;SDS011;530;51.448;7.238;2022-09-14T08:52:38;6.17;;;4.60;;
1082;SDS011;530;51.448;7.238;2022-09-14T09:00:22;5.00;;;4.03;;
1082;SDS011;530;51.448;7.238;2022-09-14T09:07:49;4.10;;;3.70;;
1082;SDS011;530;51.448;7.238;2022-09-14T09:10:24;6.33;;;3.97;;
1082;SDS011;530;51.448;7.238;2022-09-14T09:12:52;3.57;;;3.20;;
1082;SDS011;530;51.448;7.238;2022-09-14T09:15:24;2.87;;;2.57;;
1082;SDS011;530;51.448;7.238;2022-09-14T09:18:06;4.90;;;3.23;;
1082;SDS011;530;51.448;7.238;2022-09-14T09:20:39;3.13;;;2.57;;
1082;SDS011;530;51.448;7.238;2022-09-14T09:28:20;6.70;;;2.67;;
1082;SDS011;530;51.448;7.238;2022-09-14T09:30:47;3.60;;;2.80;;
1082;SDS011;530;51.448;7.238;2022-09-14T09:33:18;4.03;;;3.57;;
1082;SDS011;530;51.448;7.238;2022-09-14T09:35:46;3.10;;;2.70;;
1082;SDS011;530;51.448;7.238;2022-09-14T09:38:14;4.23;;;3.17;;
1082;SDS011;530;51.448;7.238;2022-09-14T09:40:42;5.37;;;3.63;;
1082;SDS011;530;51.448;7.238;2022-09-14T09:43:15;3.70;;;3.27;;
1082;SDS011;530;51.448;7.238;2022-09-14T09:48:28;4.53;;;2.70;;
1082;SDS011;530;51.448;7.238;2022-09-14T09:51:00;4.00;;;2.57;;
1082;SDS011;530;51.448;7.238;2022-09-14T09:53:26;4.60;;;1.90;;
1082;SDS011;530;51.448;7.238;2022-09-14T09:55:52;2.37;;;2.10;;
1082;SDS011;530;51.448;7.238;2022-09-14T09:58:39;3.90;;;2.00;;
1082;SDS011;530;51.448;7.238;2022-09-14T10:01:05;3.50;;;2.23;;
1082;SDS011;530;51.448;7.238;2022-09-14T10:03:58;3.30;;;2.07;;
1082;SDS011;530;51.448;7.238;2022-09-14T10:06:31;3.00;;;2.70;;
1082;SDS011;530;51.448;7.238;2022-09-14T10:09:11;3.17;;;2.37;;
1082;SDS011;530;51.448;7.238;2022-09-14T10:11:38;3.00;;;2.57;;
1082;SDS011;530;51.448;7.238;2022-09-14T10:14:04;4.40;;;2.50;;
1082;SDS011;530;51.448;7.238;2022-09-14T10:16:44;3.13;;;2.83;;
1082;SDS011;530;51.448;7.238;2022-09-14T10:19:13;4.43;;;3.10;;
1082;SDS011;530;51.448;7.238;2022-09-14T10:22:00;4.53;;;2.40;;
1082;SDS011;530;51.448;7.238;2022-09-14T10:24:28;3.30;;;2.97;;
1082;SDS011;530;51.448;7.238;2022-09-14T10:26:56;3.30;;;3.00;;
1082;SDS011;530;51.448;7.238;2022-09-14T10:29:38;7.10;;;3.07;;
1082;SDS011;530;51.448;7.238;2022-09-14T10:32:15;3.60;;;2.70;;
1082;SDS011;530;51.448;7.238;2022-09-14T10:34:44;3.23;;;2.47;;
1082;SDS011;530;51.448;7.238;2022-09-14T10:37:17;6.70;;;2.93;;
1082;SDS011;530;51.448;7.238;2022-09-14T10:40:10;3.43;;;2.77;;
1082;SDS011;530;51.448;7.238;2022-09-14T10:45:48;2.90;;;2.60;;
1082;SDS011;530;51.448;7.238;2022-09-14T10:48:21;5.77;;;3.37;;
1082;SDS011;530;51.448;7.238;2022-09-14T10:59:51;3.30;;;2.93;;
1082;SDS011;530;51.448;7.238;2022-09-14T11:01:59;5.20;;;3.33;;
1082;SDS011;530;51.448;7.238;2022-09-14T11:04:44;4.77;;;3.00;;
1082;SDS011;530;51.448;7.238;2022-09-14T11:07:32;5.00;;;3.53;;
1082;SDS011;530;51.448;7.238;2022-09-14T11:10:29;5.03;;;4.13;;
1082;SDS011;530;51.448;7.238;2022-09-14T11:18:36;5.50;;;3.80;;
1082;SDS011;530;51.448;7.238;2022-09-14T11:24:12;4.50;;;3.57;;
1082;SDS011;530;51.448;7.238;2022-09-14T11:29:25;2.40;;;1.90;;
1082;SDS011;530;51.448;7.238;2022-09-14T11:31:59;4.30;;;1.80;;
1082;SDS011;530;51.448;7.238;2022-09-14T11:37:05;2.20;;;1.33;;
1082;SDS011;530;51.448;7.238;2022-09-14T11:39:40;1.90;;;1.40;;
1082;SDS011;530;51.448;7.238;2022-09-14T11:45:19;1.93;;;1.57;;
1082;SDS011;530;51.448;7.238;2022-09-14T11:47:53;2.60;;;1.93;;
1082;SDS011;530;51.448;7.238;2022-09-14T11:50:27;5.50;;;2.33;;
1082;SDS011;530;51.448;7.238;2022-09-14T11:53:08;2.40;;;2.20;;
1082;SDS011;530;51.448;7.238;2022-09-14T11:55:34;3.83;;;2.53;;
1082;SDS011;530;51.448;7.238;2022-09-14T11:58:04;3.50;;;2.30;;
1082;SDS011;530;51.448;7.238;2022-09-14T12:00:41;3.43;;;2.10;;
1082;SDS011;530;51.448;7.238;2022-09-14T12:03:43;2.33;;;1.90;;
1082;SDS011;530;51.448;7.238;2022-09-14T12:11:41;2.80;;;2.37;;
1082;SDS011;530;51.448;7.238;2022-09-14T12:19:54;4.33;;;3.20;;
1082;SDS011;530;51.448;7.238;2022-09-14T12:22:42;5.53;;;2.80;;
1082;SDS011;530;51.448;7.238;2022-09-14T12:27:35;2.83;;;2.53;;
1082;SDS011;530;51.448;7.238;2022-09-14T12:33:39;5.17;;;2.50;;
1082;SDS011;530;51.448;7.238;2022-09-14T12:41:08;3.30;;;2.63;;
1082;SDS011;530;51.448;7.238;2022-09-14T12:46:09;1.80;;;1.70;;
1082;SDS011;530;51.448;7.238;2022-09-14T12:59:12;2.20;;;1.80;;
1082;SDS011;530;51.448;7.238;2022-09-14T13:04:45;5.23;;;2.50;;
1082;SDS011;530;51.448;7.238;2022-09-14T13:07:15;3.47;;;2.60;;
1082;SDS011;530;51.448;7.238;2022-09-14T13:09:46;3.50;;;2.30;;
1082;SDS011;530;51.448;7.238;2022-09-14T13:12:18;3.20;;;2.90;;
1082;SDS011;530;51.448;7.238;2022-09-14T13:14:54;3.30;;;3.00;;
1082;SDS011;530;51.448;7.238;2022-09-14T13:17:29;5.00;;;2.77;;
1082;SDS011;530;51.448;7.238;2022-09-14T13:19:55;3.47;;;3.17;;
1082;SDS011;530;51.448;7.238;2022-09-14T13:22:28;3.13;;;2.77;;
1082;SDS011;530;51.448;7.238;2022-09-14T13:24:56;4.53;;;3.07;;
1082;SDS011;530;51.448;7.238;2022-09-14T13:27:29;3.43;;;3.00;;
1082;SDS011;530;51.448;7.238;2022-09-14T13:29:58;2.50;;;2.20;;
1082;SDS011;530;51.448;7.238;2022-09-14T13:32:42;2.47;;;2.27;;
1082;SDS011;530;51.448;7.238;2022-09-14T13:35:14;3.90;;;2.30;;
1082;SDS011;530;51.448;7.238;2022-09-14T13:37:56;3.03;;;2.23;;
1082;SDS011;530;51.448;7.238;2022-09-14T13:40:23;2.97;;;2.37;;
1082;SDS011;530;51.448;7.238;2022-09-14T13:42:52;3.30;;;2.60;;
1082;SDS011;530;51.448;7.238;2022-09-14T13:45:18;4.70;;;3.23;;
1082;SDS011;530;51.448;7.238;2022-09-14T13:47:46;4.63;;;3.17;;
1082;SDS011;530;51.448;7.238;2022-09-14T13:50:12;4.07;;;2.90;;
1082;SDS011;530;51.448;7.238;2022-09-14T13:52:38;4.23;;;3.60;;
1082;SDS011;530;51.448;7.238;2022-09-14T13:57:38;4.50;;;3.83;;
1082;SDS011;530;51.448;7.238;2022-09-14T14:00:24;3.70;;;3.37;;
1082;SDS011;530;51.448;7.238;2022-09-14T14:02:58;4.20;;;3.80;;
1082;SDS011;530;51.448;7.238;2022-09-14T14:05:30;5.87;;;4.10;;
1082;SDS011;530;51.448;7.238;2022-09-14T14:07:58;4.43;;;3.93;;
1082;SDS011;530;51.448;7.238;2022-09-14T14:10:27;4.70;;;4.30;;
1082;SDS011;530;51.448;7.238;2022-09-14T14:12:56;4.70;;;3.83;;
1082;SDS011;530;51.448;7.238;2022-09-14T14:17:48;5.30;;;4.40;;
1082;SDS011;530;51.448;7.238;2022-09-14T14:20:34;4.73;;;4.23;;
1082;SDS011;530;51.448;7.238;2022-09-14T14:25:30;6.60;;;4.30;;
1082;SDS011;530;51.448;7.238;2022-09-14T14:31:02;3.77;;;3.47;;
1082;SDS011;530;51.448;7.238;2022-09-14T14:33:34;4.63;;;4.13;;
1082;SDS011;530;51.448;7.238;2022-09-14T14:36:01;3.90;;;3.50;;
1082;SDS011;530;51.448;7.238;2022-09-14T14:38:33;4.20;;;3.80;;
1082;SDS011;530;51.448;7.238;2022-09-14T14:40:59;3.60;;;3.30;;
1082;SDS011;530;51.448;7.238;2022-09-14T14:43:25;4.20;;;2.70;;
1082;SDS011;530;51.448;7.238;2022-09-14T14:45:52;3.87;;;3.10;;
1082;SDS011;530;51.448;7.238;2022-09-14T14:48:23;3.17;;;2.43;;
1082;SDS011;530;51.448;7.238;2022-09-14T14:50:50;4.90;;;3.10;;
1082;SDS011;530;51.448;7.238;2022-09-14T14:53:16;8.60;;;3.33;;
1082;SDS011;530;51.448;7.238;2022-09-14T14:55:42;4.70;;;3.20;;
1082;SDS011;530;51.448;7.238;2022-09-14T14:58:10;7.80;;;5.50;;
1082;SDS011;530;51.448;7.238;2022-09-14T15:00:39;4.80;;;4.30;;
1082;SDS011;530;51.448;7.238;2022-09-14T15:03:05;4.23;;;3.83;;
1082;SDS011;530;51.448;7.238;2022-09-14T15:05:31;5.57;;;3.83;;
1082;SDS011;530;51.448;7.238;2022-09-14T15:07:56;4.70;;;3.57;;
1082;SDS011;530;51.448;7.238;2022-09-14T15:10:23;4.30;;;3.90;;
1082;SDS011;530;51.448;7.238;2022-09-14T15:12:50;5.97;;;3.07;;
1082;SDS011;530;51.448;7.238;2022-09-14T15:15:17;3.83;;;2.90;;
1082;SDS011;530;51.448;7.238;2022-09-14T15:17:45;3.27;;;2.97;;
1082;SDS011;530;51.448;7.238;2022-09-14T15:20:11;4.50;;;2.90;;
1082;SDS011;530;51.448;7.238;2022-09-14T15:22:37;3.90;;;3.07;;
1082;SDS011;530;51.448;7.238;2022-09-14T15:25:06;4.17;;;3.10;;
1082;SDS011;530;51.448;7.238;2022-09-14T15:27:33;3.73;;;3.37;;
1082;SDS011;530;51.448;7.238;2022-09-14T15:29:59;3.23;;;2.93;;
1082;SDS011;530;51.448;7.238;2022-09-14T15:32:25;3.13;;;2.83;;
1082;SDS011;530;51.448;7.238;2022-09-14T15:34:51;4.73;;;3.13;;
1082;SDS011;530;51.448;7.238;2022-09-14T15:37:19;4.00;;;3.10;;
1082;SDS011;530;51.448;7.238;2022-09-14T15:39:45;3.30;;;3.00;;
1082;SDS011;530;51.448;7.238;2022-09-14T15:42:11;4.20;;;3.57;;
1082;SDS011;530;51.448;7.238;2022-09-14T15:44:37;5.57;;;3.37;;
1082;SDS011;530;51.448;7.238;2022-09-14T15:47:03;3.73;;;2.83;;
1082;SDS011;530;51.448;7.238;2022-09-14T15:49:29;3.70;;;3.40;;
1082;SDS011;530;51.448;7.238;2022-09-14T15:51:55;3.53;;;3.23;;
1082;SDS011;530;51.448;7.238;2022-09-14T15:54:22;3.97;;;3.67;;
1082;SDS011;530;51.448;7.238;2022-09-14T15:56:50;5.17;;;4.20;;
1082;SDS011;530;51.448;7.238;2022-09-14T15:59:19;3.90;;;3.60;;
1082;SDS011;530;51.448;7.238;2022-09-14T16:01:46;4.50;;;3.30;;
1082;SDS011;530;51.448;7.238;2022-09-14T16:04:12;3.87;;;3.57;;
1082;SDS011;530;51.448;7.238;2022-09-14T16:06:38;4.10;;;3.70;;
1082;SDS011;530;51.448;7.238;2022-09-14T16:09:05;6.23;;;4.27;;
1082;SDS011;530;51.448;7.238;2022-09-14T16:11:33;7.97;;;4.57;;
1082;SDS011;530;51.448;7.238;2022-09-14T16:13:59;6.27;;;4.47;;
1082;SDS011;530;51.448;7.238;2022-09-14T16:16:25;5.70;;;4.40;;
1082;SDS011;530;51.448;7.238;2022-09-14T16:18:51;4.87;;;4.47;;
1082;SDS011;530;51.448;7.238;2022-09-14T16:21:26;6.10;;;4.70;;
1082;SDS011;530;51.448;7.238;2022-09-14T16:23:56;5.80;;;4.63;;
1082;SDS011;530;51.448;7.238;2022-09-14T16:26:24;6.17;;;4.20;;
1082;SDS011;530;51.448;7.238;2022-09-14T16:28:51;4.77;;;4.27;;
1082;SDS011;530;51.448;7.238;2022-09-14T16:31:26;6.30;;;4.63;;
1082;SDS011;530;51.448;7.238;2022-09-14T16:33:56;5.80;;;4.20;;
1082;SDS011;530;51.448;7.238;2022-09-14T16:36:25;4.10;;;3.70;;
1082;SDS011;530;51.448;7.238;2022-09-14T16:38:55;6.67;;;4.30;;
1082;SDS011;530;51.448;7.238;2022-09-14T16:41:23;8.03;;;4.00;;
1082;SDS011;530;51.448;7.238;2022-09-14T16:43:55;4.07;;;3.67;;
1082;SDS011;530;51.448;7.238;2022-09-14T16:46:24;4.80;;;3.57;;
1082;SDS011;530;51.448;7.238;2022-09-14T16:48:51;7.80;;;3.90;;
1082;SDS011;530;51.448;7.238;2022-09-14T16:51:18;4.40;;;3.90;;
1082;SDS011;530;51.448;7.238;2022-09-14T16:53:47;5.40;;;4.10;;
1082;SDS011;530;51.448;7.238;2022-09-14T16:56:20;6.20;;;5.17;;
1082;SDS011;530;51.448;7.238;2022-09-14T16:58:47;6.30;;;5.53;;
1082;SDS011;530;51.448;7.238;2022-09-14T17:01:21;8.93;;;5.80;;
1082;SDS011;530;51.448;7.238;2022-09-14T17:04:11;5.60;;;4.93;;
1082;SDS011;530;51.448;7.238;2022-09-14T17:06:43;5.97;;;5.20;;
1082;SDS011;530;51.448;7.238;2022-09-14T17:09:13;6.33;;;5.77;;
1082;SDS011;530;51.448;7.238;2022-09-14T17:11:41;7.93;;;7.07;;
1082;SDS011;530;51.448;7.238;2022-09-14T17:14:08;7.50;;;6.80;;
1082;SDS011;530;51.448;7.238;2022-09-14T17:16:37;8.53;;;7.67;;
1082;SDS011;530;51.448;7.238;2022-09-14T17:19:03;7.63;;;6.93;;
1082;SDS011;530;51.448;7.238;2022-09-14T17:21:30;7.90;;;7.10;;
1082;SDS011;530;51.448;7.238;2022-09-14T17:23:57;8.50;;;7.70;;
1082;SDS011;530;51.448;7.238;2022-09-14T17:26:24;10.53;;;8.77;;
1082;SDS011;530;51.448;7.238;2022-09-14T17:28:50;10.10;;;7.77;;
1082;SDS011;530;51.448;7.238;2022-09-14T17:31:19;9.53;;;8.53;;
1082;SDS011;530;51.448;7.238;2022-09-14T17:33:46;10.43;;;9.43;;
1082;SDS011;530;51.448;7.238;2022-09-14T17:36:12;10.57;;;9.13;;
1082;SDS011;530;51.448;7.238;2022-09-14T17:38:39;8.97;;;8.07;;
1082;SDS011;530;51.448;7.238;2022-09-14T17:41:13;10.90;;;9.80;;
1082;SDS011;530;51.448;7.238;2022-09-14T17:43:40;11.80;;;10.43;;
1082;SDS011;530;51.448;7.238;2022-09-14T17:46:08;13.93;;;12.47;;
1082;SDS011;530;51.448;7.238;2022-09-14T17:48:37;12.03;;;10.73;;
1082;SDS011;530;51.448;7.238;2022-09-14T17:51:05;14.93;;;12.50;;
1082;SDS011;530;51.448;7.238;2022-09-14T17:53:43;12.67;;;11.17;;